Terminal Aerodrome Forecast
Issued by NWS Cleveland, OH

Home | Current Version | Previous Version | Graphics & Text | Print | Product List | Glossary On
Versions: 1 2 3 4 5 6 7 8 9 10 11 12 13 14 15 16 17 18 19 20 21 22
000
FTUS41 KCLE 170500
TAFERI
TAF
KERI 170534Z 1706/1806 20008KT P6SM VCSH SCT030 BKN050
      TEMPO 1706/1710 5SM -RA BR SCT010 OVC035
     FM171000 21010KT P6SM VCSH SCT015 OVC030
      TEMPO 1710/1714 BKN015 OVC030
     FM171500 20015G25KT P6SM BKN025 OVC050
     FM172000 21015G25KT P6SM OVC050
     FM180000 21012KT P6SM BKN050
     FM180400 24018KT P6SM VCSH BKN025 OVC050=

USA.gov is the U.S. government's official web portal to all federal, state and local government web resources and services.